sensor_id;sensor_type;location;lat;lon;timestamp;temperature;humidity
22966;DHT22;11649;48.090;9.754;2023-03-24T00:00:20;10.90;99.90
22966;DHT22;11649;48.090;9.754;2023-03-24T00:02:50;11.00;99.90
22966;DHT22;11649;48.090;9.754;2023-03-24T00:05:20;11.10;99.90
22966;DHT22;11649;48.090;9.754;2023-03-24T00:07:47;10.80;99.90
22966;DHT22;11649;48.090;9.754;2023-03-24T00:10:20;10.90;99.90
22966;DHT22;11649;48.090;9.754;2023-03-24T00:12:48;11.00;99.90
22966;DHT22;11649;48.090;9.754;2023-03-24T00:15:18;11.00;99.90
22966;DHT22;11649;48.090;9.754;2023-03-24T00:17:46;11.20;99.90
22966;DHT22;11649;48.090;9.754;2023-03-24T00:20:17;10.90;99.90
22966;DHT22;11649;48.090;9.754;2023-03-24T00:22:47;11.30;99.90
22966;DHT22;11649;48.090;9.754;2023-03-24T00:25:18;11.40;99.90
22966;DHT22;11649;48.090;9.754;2023-03-24T00:27:45;11.40;99.90
22966;DHT22;11649;48.090;9.754;2023-03-24T00:30:16;11.60;99.90
22966;DHT22;11649;48.090;9.754;2023-03-24T00:32:43;11.60;99.90
22966;DHT22;11649;48.090;9.754;2023-03-24T00:35:14;11.60;99.90
22966;DHT22;11649;48.090;9.754;2023-03-24T00:37:42;11.70;99.90
22966;DHT22;11649;48.090;9.754;2023-03-24T00:40:13;11.70;99.90
22966;DHT22;11649;48.090;9.754;2023-03-24T00:42:44;11.80;99.90
22966;DHT22;11649;48.090;9.754;2023-03-24T00:45:17;11.80;99.90
22966;DHT22;11649;48.090;9.754;2023-03-24T00:47:45;11.80;99.90
22966;DHT22;11649;48.090;9.754;2023-03-24T00:50:17;11.90;99.90
22966;DHT22;11649;48.090;9.754;2023-03-24T00:52:46;11.90;99.90
22966;DHT22;11649;48.090;9.754;2023-03-24T00:55:15;11.90;99.90
22966;DHT22;11649;48.090;9.754;2023-03-24T00:57:46;11.90;99.90
22966;DHT22;11649;48.090;9.754;2023-03-24T01:00:28;11.90;99.90
22966;DHT22;11649;48.090;9.754;2023-03-24T01:02:56;11.90;99.90
22966;DHT22;11649;48.090;9.754;2023-03-24T01:05:25;12.00;99.90
22966;DHT22;11649;48.090;9.754;2023-03-24T01:07:58;12.00;99.90
22966;DHT22;11649;48.090;9.754;2023-03-24T01:10:30;12.00;99.90
22966;DHT22;11649;48.090;9.754;2023-03-24T01:12:58;12.10;99.90
22966;DHT22;11649;48.090;9.754;2023-03-24T01:15:31;12.10;99.40
22966;DHT22;11649;48.090;9.754;2023-03-24T01:17:59;12.10;99.50
22966;DHT22;11649;48.090;9.754;2023-03-24T01:20:28;12.10;99.90
22966;DHT22;11649;48.090;9.754;2023-03-24T01:23:00;12.10;99.90
22966;DHT22;11649;48.090;9.754;2023-03-24T01:25:27;12.60;99.90
22966;DHT22;11649;48.090;9.754;2023-03-24T01:27:56;12.10;99.80
22966;DHT22;11649;48.090;9.754;2023-03-24T01:30:25;12.00;99.20
22966;DHT22;11649;48.090;9.754;2023-03-24T01:32:53;12.10;99.50
22966;DHT22;11649;48.090;9.754;2023-03-24T01:35:21;12.00;99.90
22966;DHT22;11649;48.090;9.754;2023-03-24T01:37:48;11.90;99.90
22966;DHT22;11649;48.090;9.754;2023-03-24T01:40:21;11.90;99.60
22966;DHT22;11649;48.090;9.754;2023-03-24T01:42:48;11.90;99.50
22966;DHT22;11649;48.090;9.754;2023-03-24T01:48:17;11.90;99.60
22966;DHT22;11649;48.090;9.754;2023-03-24T01:50:53;11.80;99.90
22966;DHT22;11649;48.090;9.754;2023-03-24T01:53:22;11.80;99.90
22966;DHT22;11649;48.090;9.754;2023-03-24T01:55:50;11.70;99.90
22966;DHT22;11649;48.090;9.754;2023-03-24T01:58:17;11.60;99.90
22966;DHT22;11649;48.090;9.754;2023-03-24T02:00:44;11.50;99.90
22966;DHT22;11649;48.090;9.754;2023-03-24T02:03:16;11.50;99.90
22966;DHT22;11649;48.090;9.754;2023-03-24T02:05:46;11.80;99.90
22966;DHT22;11649;48.090;9.754;2023-03-24T02:08:27;11.40;99.90
22966;DHT22;11649;48.090;9.754;2023-03-24T02:10:57;11.30;99.90
22966;DHT22;11649;48.090;9.754;2023-03-24T02:13:24;11.30;99.90
22966;DHT22;11649;48.090;9.754;2023-03-24T02:30:06;11.10;99.90
22966;DHT22;11649;48.090;9.754;2023-03-24T02:41:55;11.30;99.90
22966;DHT22;11649;48.090;9.754;2023-03-24T02:44:47;11.30;99.90
22966;DHT22;11649;48.090;9.754;2023-03-24T02:50:11;11.30;99.90
22966;DHT22;11649;48.090;9.754;2023-03-24T02:53:05;11.30;99.90
22966;DHT22;11649;48.090;9.754;2023-03-24T02:55:52;11.30;99.90
22966;DHT22;11649;48.090;9.754;2023-03-24T02:58:59;11.30;99.90
22966;DHT22;11649;48.090;9.754;2023-03-24T03:01:29;11.20;99.90
22966;DHT22;11649;48.090;9.754;2023-03-24T03:04:01;11.30;99.90
22966;DHT22;11649;48.090;9.754;2023-03-24T03:06:32;11.40;99.90
22966;DHT22;11649;48.090;9.754;2023-03-24T03:09:03;11.30;99.90
22966;DHT22;11649;48.090;9.754;2023-03-24T03:11:33;11.40;99.90
22966;DHT22;11649;48.090;9.754;2023-03-24T03:14:08;11.40;99.90
22966;DHT22;11649;48.090;9.754;2023-03-24T03:19:20;11.40;99.90
22966;DHT22;11649;48.090;9.754;2023-03-24T03:21:49;11.50;99.90
22966;DHT22;11649;48.090;9.754;2023-03-24T03:24:21;11.50;99.90
22966;DHT22;11649;48.090;9.754;2023-03-24T03:27:17;11.50;99.90
22966;DHT22;11649;48.090;9.754;2023-03-24T03:29:49;11.60;99.90
22966;DHT22;11649;48.090;9.754;2023-03-24T03:32:24;11.60;99.90
22966;DHT22;11649;48.090;9.754;2023-03-24T03:35:01;11.50;99.90
22966;DHT22;11649;48.090;9.754;2023-03-24T03:41:20;11.50;99.90
22966;DHT22;11649;48.090;9.754;2023-03-24T03:43:48;11.40;99.90
22966;DHT22;11649;48.090;9.754;2023-03-24T03:46:16;11.50;99.90
22966;DHT22;11649;48.090;9.754;2023-03-24T03:48:44;11.50;99.90
22966;DHT22;11649;48.090;9.754;2023-03-24T03:51:12;11.60;99.90
22966;DHT22;11649;48.090;9.754;2023-03-24T03:53:47;11.70;99.90
22966;DHT22;11649;48.090;9.754;2023-03-24T03:56:19;11.70;99.90
22966;DHT22;11649;48.090;9.754;2023-03-24T03:58:47;11.60;99.90
22966;DHT22;11649;48.090;9.754;2023-03-24T04:01:22;11.60;99.90
22966;DHT22;11649;48.090;9.754;2023-03-24T04:07:09;11.80;99.90
22966;DHT22;11649;48.090;9.754;2023-03-24T04:09:48;11.80;99.90
22966;DHT22;11649;48.090;9.754;2023-03-24T04:18:24;11.80;99.90
22966;DHT22;11649;48.090;9.754;2023-03-24T04:26:31;11.70;99.90
22966;DHT22;11649;48.090;9.754;2023-03-24T04:29:09;11.60;99.90
22966;DHT22;11649;48.090;9.754;2023-03-24T04:34:37;11.60;99.90
22966;DHT22;11649;48.090;9.754;2023-03-24T04:37:13;11.60;99.90
22966;DHT22;11649;48.090;9.754;2023-03-24T04:39:43;11.50;99.90
22966;DHT22;11649;48.090;9.754;2023-03-24T04:42:21;11.40;99.90
22966;DHT22;11649;48.090;9.754;2023-03-24T04:44:51;11.40;99.90
22966;DHT22;11649;48.090;9.754;2023-03-24T04:47:20;11.30;99.90
22966;DHT22;11649;48.090;9.754;2023-03-24T04:49:48;11.30;99.90
22966;DHT22;11649;48.090;9.754;2023-03-24T04:52:15;11.50;99.90
22966;DHT22;11649;48.090;9.754;2023-03-24T04:54:43;11.30;99.90
22966;DHT22;11649;48.090;9.754;2023-03-24T04:57:10;11.30;99.90
22966;DHT22;11649;48.090;9.754;2023-03-24T04:59:37;11.30;99.90
22966;DHT22;11649;48.090;9.754;2023-03-24T05:02:04;11.20;99.90
22966;DHT22;11649;48.090;9.754;2023-03-24T05:04:31;11.20;99.90
22966;DHT22;11649;48.090;9.754;2023-03-24T05:07:03;11.20;99.90
22966;DHT22;11649;48.090;9.754;2023-03-24T05:09:30;11.20;99.90
22966;DHT22;11649;48.090;9.754;2023-03-24T05:11:57;11.10;99.90
22966;DHT22;11649;48.090;9.754;2023-03-24T05:14:27;11.00;99.90
22966;DHT22;11649;48.090;9.754;2023-03-24T05:16:54;10.90;99.90
22966;DHT22;11649;48.090;9.754;2023-03-24T05:19:20;10.90;99.90
22966;DHT22;11649;48.090;9.754;2023-03-24T05:21:47;10.80;99.90
22966;DHT22;11649;48.090;9.754;2023-03-24T05:24:14;10.90;99.90
22966;DHT22;11649;48.090;9.754;2023-03-24T05:26:41;10.90;99.90
22966;DHT22;11649;48.090;9.754;2023-03-24T05:29:07;10.90;99.90
22966;DHT22;11649;48.090;9.754;2023-03-24T05:31:34;10.90;99.90
22966;DHT22;11649;48.090;9.754;2023-03-24T05:34:01;10.90;99.90
22966;DHT22;11649;48.090;9.754;2023-03-24T05:36:28;10.90;99.90
22966;DHT22;11649;48.090;9.754;2023-03-24T05:38:55;10.90;99.90
22966;DHT22;11649;48.090;9.754;2023-03-24T05:41:22;10.90;99.90
22966;DHT22;11649;48.090;9.754;2023-03-24T05:43:48;10.90;99.90
22966;DHT22;11649;48.090;9.754;2023-03-24T05:46:15;10.90;99.90
22966;DHT22;11649;48.090;9.754;2023-03-24T05:48:42;10.90;99.90
22966;DHT22;11649;48.090;9.754;2023-03-24T05:51:09;12.20;99.90
22966;DHT22;11649;48.090;9.754;2023-03-24T05:53:36;11.00;99.90
22966;DHT22;11649;48.090;9.754;2023-03-24T05:56:03;11.40;99.90
22966;DHT22;11649;48.090;9.754;2023-03-24T05:58:31;11.00;99.90
22966;DHT22;11649;48.090;9.754;2023-03-24T06:01:06;11.00;99.90
22966;DHT22;11649;48.090;9.754;2023-03-24T06:03:33;11.10;99.90
22966;DHT22;11649;48.090;9.754;2023-03-24T06:06:00;11.10;99.90
22966;DHT22;11649;48.090;9.754;2023-03-24T06:08:27;11.20;99.90
22966;DHT22;11649;48.090;9.754;2023-03-24T06:10:58;11.10;99.90
22966;DHT22;11649;48.090;9.754;2023-03-24T06:13:29;11.20;99.90
22966;DHT22;11649;48.090;9.754;2023-03-24T06:15:56;11.20;99.90
22966;DHT22;11649;48.090;9.754;2023-03-24T06:18:27;11.30;99.90
22966;DHT22;11649;48.090;9.754;2023-03-24T06:20:56;11.40;99.90
22966;DHT22;11649;48.090;9.754;2023-03-24T06:23:23;11.60;99.90
22966;DHT22;11649;48.090;9.754;2023-03-24T06:25:51;11.70;99.90
22966;DHT22;11649;48.090;9.754;2023-03-24T06:28:19;11.90;99.90
22966;DHT22;11649;48.090;9.754;2023-03-24T06:30:46;11.90;99.90
22966;DHT22;11649;48.090;9.754;2023-03-24T06:33:15;11.90;99.90
22966;DHT22;11649;48.090;9.754;2023-03-24T06:35:42;12.00;99.90
22966;DHT22;11649;48.090;9.754;2023-03-24T06:38:09;11.90;99.90
22966;DHT22;11649;48.090;9.754;2023-03-24T06:40:37;12.00;99.90
22966;DHT22;11649;48.090;9.754;2023-03-24T06:43:04;12.00;99.90
22966;DHT22;11649;48.090;9.754;2023-03-24T06:45:31;11.90;99.90
22966;DHT22;11649;48.090;9.754;2023-03-24T06:47:59;11.90;99.90
22966;DHT22;11649;48.090;9.754;2023-03-24T06:50:26;11.90;99.90
22966;DHT22;11649;48.090;9.754;2023-03-24T06:52:59;12.00;99.90
22966;DHT22;11649;48.090;9.754;2023-03-24T06:55:26;12.00;99.90
22966;DHT22;11649;48.090;9.754;2023-03-24T06:57:53;11.90;99.90
22966;DHT22;11649;48.090;9.754;2023-03-24T07:00:20;11.80;99.90
22966;DHT22;11649;48.090;9.754;2023-03-24T07:02:47;11.80;99.90
22966;DHT22;11649;48.090;9.754;2023-03-24T07:05:14;11.90;99.90
22966;DHT22;11649;48.090;9.754;2023-03-24T07:07:41;11.80;99.90
22966;DHT22;11649;48.090;9.754;2023-03-24T07:10:10;11.80;99.90
22966;DHT22;11649;48.090;9.754;2023-03-24T07:12:39;11.80;99.90
22966;DHT22;11649;48.090;9.754;2023-03-24T07:15:07;11.70;99.90
22966;DHT22;11649;48.090;9.754;2023-03-24T07:17:35;11.90;99.90
22966;DHT22;11649;48.090;9.754;2023-03-24T07:20:02;11.90;99.90
22966;DHT22;11649;48.090;9.754;2023-03-24T07:22:34;11.90;99.90
22966;DHT22;11649;48.090;9.754;2023-03-24T07:25:04;11.90;99.90
22966;DHT22;11649;48.090;9.754;2023-03-24T07:27:34;12.00;99.90
22966;DHT22;11649;48.090;9.754;2023-03-24T07:30:01;11.80;99.90
22966;DHT22;11649;48.090;9.754;2023-03-24T07:32:29;11.90;99.90
22966;DHT22;11649;48.090;9.754;2023-03-24T07:34:56;11.80;99.90
22966;DHT22;11649;48.090;9.754;2023-03-24T07:37:23;11.80;99.90
22966;DHT22;11649;48.090;9.754;2023-03-24T07:39:49;12.00;99.90
22966;DHT22;11649;48.090;9.754;2023-03-24T07:42:16;11.80;99.90
22966;DHT22;11649;48.090;9.754;2023-03-24T07:44:43;11.70;99.90
22966;DHT22;11649;48.090;9.754;2023-03-24T07:47:10;11.80;99.90
22966;DHT22;11649;48.090;9.754;2023-03-24T07:49:37;11.70;99.90
22966;DHT22;11649;48.090;9.754;2023-03-24T07:52:04;11.60;99.90
22966;DHT22;11649;48.090;9.754;2023-03-24T07:54:32;11.60;99.90
22966;DHT22;11649;48.090;9.754;2023-03-24T07:57:00;11.50;99.90
22966;DHT22;11649;48.090;9.754;2023-03-24T07:59:27;11.50;99.90
22966;DHT22;11649;48.090;9.754;2023-03-24T08:01:54;11.50;99.90
22966;DHT22;11649;48.090;9.754;2023-03-24T08:04:40;11.50;99.90
22966;DHT22;11649;48.090;9.754;2023-03-24T08:07:08;11.50;99.90
22966;DHT22;11649;48.090;9.754;2023-03-24T08:09:35;11.40;99.90
22966;DHT22;11649;48.090;9.754;2023-03-24T08:12:02;11.30;99.90
22966;DHT22;11649;48.090;9.754;2023-03-24T08:14:43;11.20;99.90
22966;DHT22;11649;48.090;9.754;2023-03-24T08:17:09;11.10;99.90
22966;DHT22;11649;48.090;9.754;2023-03-24T08:19:37;11.00;99.90
22966;DHT22;11649;48.090;9.754;2023-03-24T08:22:17;11.00;99.90
22966;DHT22;11649;48.090;9.754;2023-03-24T08:24:44;11.10;99.90
22966;DHT22;11649;48.090;9.754;2023-03-24T08:27:11;11.10;99.90
22966;DHT22;11649;48.090;9.754;2023-03-24T08:29:38;11.10;99.90
22966;DHT22;11649;48.090;9.754;2023-03-24T08:32:05;11.10;99.90
22966;DHT22;11649;48.090;9.754;2023-03-24T08:34:31;11.10;99.90
22966;DHT22;11649;48.090;9.754;2023-03-24T08:36:58;11.00;99.90
22966;DHT22;11649;48.090;9.754;2023-03-24T08:39:25;11.00;99.90
22966;DHT22;11649;48.090;9.754;2023-03-24T08:41:52;11.00;99.90
22966;DHT22;11649;48.090;9.754;2023-03-24T08:44:20;11.00;99.90
22966;DHT22;11649;48.090;9.754;2023-03-24T08:46:47;10.90;99.90
22966;DHT22;11649;48.090;9.754;2023-03-24T08:49:14;10.90;99.90
22966;DHT22;11649;48.090;9.754;2023-03-24T08:51:41;10.90;99.90
22966;DHT22;11649;48.090;9.754;2023-03-24T08:54:07;10.90;99.90
22966;DHT22;11649;48.090;9.754;2023-03-24T08:56:36;11.00;99.90
22966;DHT22;11649;48.090;9.754;2023-03-24T08:59:03;11.00;99.90
22966;DHT22;11649;48.090;9.754;2023-03-24T09:01:32;11.00;99.90
22966;DHT22;11649;48.090;9.754;2023-03-24T09:04:01;11.00;99.90
22966;DHT22;11649;48.090;9.754;2023-03-24T09:06:29;11.00;99.90
22966;DHT22;11649;48.090;9.754;2023-03-24T09:08:57;10.90;99.90
22966;DHT22;11649;48.090;9.754;2023-03-24T09:11:23;10.80;99.90
22966;DHT22;11649;48.090;9.754;2023-03-24T09:13:50;10.80;99.90
22966;DHT22;11649;48.090;9.754;2023-03-24T09:16:17;10.80;99.90
22966;DHT22;11649;48.090;9.754;2023-03-24T09:18:44;10.90;99.90
22966;DHT22;11649;48.090;9.754;2023-03-24T09:21:12;10.90;99.90
22966;DHT22;11649;48.090;9.754;2023-03-24T09:23:39;10.80;99.90
22966;DHT22;11649;48.090;9.754;2023-03-24T09:26:06;10.90;99.90
22966;DHT22;11649;48.090;9.754;2023-03-24T09:28:33;10.90;99.90
22966;DHT22;11649;48.090;9.754;2023-03-24T09:31:03;11.00;99.90
22966;DHT22;11649;48.090;9.754;2023-03-24T09:33:30;11.00;99.90
22966;DHT22;11649;48.090;9.754;2023-03-24T09:35:59;11.00;99.90
22966;DHT22;11649;48.090;9.754;2023-03-24T09:38:27;11.00;99.90
22966;DHT22;11649;48.090;9.754;2023-03-24T09:40:59;10.90;99.90
22966;DHT22;11649;48.090;9.754;2023-03-24T09:43:56;11.00;99.90
22966;DHT22;11649;48.090;9.754;2023-03-24T09:46:52;10.90;99.90
22966;DHT22;11649;48.090;9.754;2023-03-24T09:49:27;10.90;99.90
22966;DHT22;11649;48.090;9.754;2023-03-24T09:52:14;10.90;99.90
22966;DHT22;11649;48.090;9.754;2023-03-24T09:57:19;10.90;99.90
22966;DHT22;11649;48.090;9.754;2023-03-24T09:59:47;10.90;99.90
22966;DHT22;11649;48.090;9.754;2023-03-24T10:02:17;10.90;99.90
22966;DHT22;11649;48.090;9.754;2023-03-24T10:04:47;11.10;99.90
22966;DHT22;11649;48.090;9.754;2023-03-24T10:07:24;11.20;99.90
22966;DHT22;11649;48.090;9.754;2023-03-24T10:09:57;11.30;99.90
22966;DHT22;11649;48.090;9.754;2023-03-24T10:15:13;11.40;99.90
22966;DHT22;11649;48.090;9.754;2023-03-24T10:23:50;11.90;99.90
22966;DHT22;11649;48.090;9.754;2023-03-24T10:29:32;12.30;99.90
22966;DHT22;11649;48.090;9.754;2023-03-24T10:32:04;12.50;99.90
22966;DHT22;11649;48.090;9.754;2023-03-24T10:34:33;12.60;99.90
22966;DHT22;11649;48.090;9.754;2023-03-24T10:37:02;12.70;99.90
22966;DHT22;11649;48.090;9.754;2023-03-24T10:39:30;12.70;99.90
22966;DHT22;11649;48.090;9.754;2023-03-24T10:42:17;12.60;99.90
22966;DHT22;11649;48.090;9.754;2023-03-24T10:44:49;12.70;99.90
22966;DHT22;11649;48.090;9.754;2023-03-24T10:47:21;12.70;99.90
22966;DHT22;11649;48.090;9.754;2023-03-24T10:50:00;12.70;99.90
22966;DHT22;11649;48.090;9.754;2023-03-24T10:52:44;12.60;99.90
22966;DHT22;11649;48.090;9.754;2023-03-24T10:55:14;12.50;99.90
22966;DHT22;11649;48.090;9.754;2023-03-24T10:57:47;12.50;99.90
22966;DHT22;11649;48.090;9.754;2023-03-24T11:00:20;12.40;99.90
22966;DHT22;11649;48.090;9.754;2023-03-24T11:03:03;12.40;99.90
22966;DHT22;11649;48.090;9.754;2023-03-24T11:05:36;12.40;99.90
22966;DHT22;11649;48.090;9.754;2023-03-24T11:10:57;12.50;99.90
22966;DHT22;11649;48.090;9.754;2023-03-24T11:13:32;12.30;99.90
22966;DHT22;11649;48.090;9.754;2023-03-24T11:18:34;12.10;99.90
22966;DHT22;11649;48.090;9.754;2023-03-24T11:21:04;12.00;99.90
22966;DHT22;11649;48.090;9.754;2023-03-24T11:23:36;11.90;99.90
22966;DHT22;11649;48.090;9.754;2023-03-24T11:26:22;11.90;99.90
22966;DHT22;11649;48.090;9.754;2023-03-24T11:28:56;11.80;99.90
22966;DHT22;11649;48.090;9.754;2023-03-24T11:31:29;11.50;99.90
22966;DHT22;11649;48.090;9.754;2023-03-24T11:34:02;11.30;99.90
22966;DHT22;11649;48.090;9.754;2023-03-24T11:39:22;11.20;99.90
22966;DHT22;11649;48.090;9.754;2023-03-24T11:47:11;11.10;99.90
22966;DHT22;11649;48.090;9.754;2023-03-24T11:50:34;11.00;99.90
22966;DHT22;11649;48.090;9.754;2023-03-24T11:52:52;11.00;99.90
22966;DHT22;11649;48.090;9.754;2023-03-24T11:55:23;10.90;99.90
22966;DHT22;11649;48.090;9.754;2023-03-24T11:57:59;10.90;99.90
22966;DHT22;11649;48.090;9.754;2023-03-24T12:00:58;10.80;99.90
22966;DHT22;11649;48.090;9.754;2023-03-24T12:09:32;10.70;99.90
22966;DHT22;11649;48.090;9.754;2023-03-24T12:26:07;10.80;99.90
22966;DHT22;11649;48.090;9.754;2023-03-24T12:31:37;10.90;99.90
22966;DHT22;11649;48.090;9.754;2023-03-24T12:34:36;10.90;99.90
22966;DHT22;11649;48.090;9.754;2023-03-24T12:37:20;10.90;99.90
22966;DHT22;11649;48.090;9.754;2023-03-24T12:43:10;10.90;99.90
22966;DHT22;11649;48.090;9.754;2023-03-24T12:45:48;10.90;99.90
22966;DHT22;11649;48.090;9.754;2023-03-24T12:48:53;11.00;99.90
22966;DHT22;11649;48.090;9.754;2023-03-24T12:51:46;11.00;99.90
22966;DHT22;11649;48.090;9.754;2023-03-24T12:54:37;11.00;99.90
22966;DHT22;11649;48.090;9.754;2023-03-24T12:57:12;11.00;99.90
22966;DHT22;11649;48.090;9.754;2023-03-24T12:59:44;10.90;99.90
22966;DHT22;11649;48.090;9.754;2023-03-24T13:02:30;10.60;99.90
22966;DHT22;11649;48.090;9.754;2023-03-24T13:05:02;10.30;99.90
22966;DHT22;11649;48.090;9.754;2023-03-24T13:07:34;10.20;99.90
22966;DHT22;11649;48.090;9.754;2023-03-24T13:10:11;10.10;99.90
22966;DHT22;11649;48.090;9.754;2023-03-24T13:12:59;10.10;99.90
22966;DHT22;11649;48.090;9.754;2023-03-24T13:15:44;10.20;99.90
22966;DHT22;11649;48.090;9.754;2023-03-24T13:18:38;10.30;99.90
22966;DHT22;11649;48.090;9.754;2023-03-24T13:21:19;10.30;99.90
22966;DHT22;11649;48.090;9.754;2023-03-24T13:24:06;10.30;99.90
22966;DHT22;11649;48.090;9.754;2023-03-24T13:29:54;10.30;99.90
22966;DHT22;11649;48.090;9.754;2023-03-24T13:32:34;10.40;99.90
22966;DHT22;11649;48.090;9.754;2023-03-24T13:37:52;10.70;99.90
22966;DHT22;11649;48.090;9.754;2023-03-24T13:40:24;10.80;99.90
22966;DHT22;11649;48.090;9.754;2023-03-24T13:42:54;10.80;99.90
22966;DHT22;11649;48.090;9.754;2023-03-24T13:45:36;11.00;99.90
22966;DHT22;11649;48.090;9.754;2023-03-24T13:48:25;11.20;99.90
22966;DHT22;11649;48.090;9.754;2023-03-24T13:51:06;11.40;99.90
22966;DHT22;11649;48.090;9.754;2023-03-24T13:53:37;11.30;99.90
22966;DHT22;11649;48.090;9.754;2023-03-24T13:56:06;11.20;99.90
22966;DHT22;11649;48.090;9.754;2023-03-24T14:01:41;11.10;99.90
22966;DHT22;11649;48.090;9.754;2023-03-24T14:06:51;11.00;99.90
22966;DHT22;11649;48.090;9.754;2023-03-24T14:09:21;10.90;99.90
22966;DHT22;11649;48.090;9.754;2023-03-24T14:14:23;10.90;99.90
22966;DHT22;11649;48.090;9.754;2023-03-24T14:19:31;10.80;99.90
22966;DHT22;11649;48.090;9.754;2023-03-24T14:22:28;10.70;99.90
22966;DHT22;11649;48.090;9.754;2023-03-24T14:24:59;10.50;99.90
22966;DHT22;11649;48.090;9.754;2023-03-24T14:27:39;10.40;99.90
22966;DHT22;11649;48.090;9.754;2023-03-24T14:30:23;10.30;99.90
22966;DHT22;11649;48.090;9.754;2023-03-24T14:33:00;10.20;99.90
22966;DHT22;11649;48.090;9.754;2023-03-24T14:35:43;10.20;99.90
22966;DHT22;11649;48.090;9.754;2023-03-24T14:40:51;10.10;99.90
22966;DHT22;11649;48.090;9.754;2023-03-24T14:48:31;10.00;99.90
22966;DHT22;11649;48.090;9.754;2023-03-24T14:51:20;10.00;99.90
22966;DHT22;11649;48.090;9.754;2023-03-24T14:53:55;10.00;99.90
22966;DHT22;11649;48.090;9.754;2023-03-24T14:56:26;10.00;99.90
22966;DHT22;11649;48.090;9.754;2023-03-24T14:58:58;10.00;99.90
22966;DHT22;11649;48.090;9.754;2023-03-24T15:01:30;9.90;99.90
22966;DHT22;11649;48.090;9.754;2023-03-24T15:04:06;10.00;99.90
22966;DHT22;11649;48.090;9.754;2023-03-24T15:06:41;9.90;99.90
22966;DHT22;11649;48.090;9.754;2023-03-24T15:09:09;9.90;99.90
22966;DHT22;11649;48.090;9.754;2023-03-24T15:11:38;9.90;99.90
22966;DHT22;11649;48.090;9.754;2023-03-24T15:16:40;9.90;99.90
22966;DHT22;11649;48.090;9.754;2023-03-24T15:19:17;10.00;99.90
22966;DHT22;11649;48.090;9.754;2023-03-24T15:21:57;10.00;99.90
22966;DHT22;11649;48.090;9.754;2023-03-24T15:24:35;10.10;99.90
22966;DHT22;11649;48.090;9.754;2023-03-24T15:29:40;10.10;99.90
22966;DHT22;11649;48.090;9.754;2023-03-24T15:32:18;10.10;99.90
22966;DHT22;11649;48.090;9.754;2023-03-24T15:37:33;10.00;99.90
22966;DHT22;11649;48.090;9.754;2023-03-24T15:40:01;9.90;99.90
22966;DHT22;11649;48.090;9.754;2023-03-24T15:42:43;9.90;99.90
22966;DHT22;11649;48.090;9.754;2023-03-24T15:45:27;9.90;99.90
22966;DHT22;11649;48.090;9.754;2023-03-24T15:47:55;9.90;99.90
22966;DHT22;11649;48.090;9.754;2023-03-24T15:50:38;9.80;99.90
22966;DHT22;11649;48.090;9.754;2023-03-24T15:55:47;9.80;99.90
22966;DHT22;11649;48.090;9.754;2023-03-24T15:58:27;9.80;99.90
22966;DHT22;11649;48.090;9.754;2023-03-24T16:01:00;10.00;99.90
22966;DHT22;11649;48.090;9.754;2023-03-24T16:03:29;9.70;99.90
22966;DHT22;11649;48.090;9.754;2023-03-24T16:05:57;9.70;99.90
22966;DHT22;11649;48.090;9.754;2023-03-24T16:08:32;9.70;99.90
22966;DHT22;11649;48.090;9.754;2023-03-24T16:11:11;9.60;99.90
22966;DHT22;11649;48.090;9.754;2023-03-24T16:13:40;9.60;99.90
22966;DHT22;11649;48.090;9.754;2023-03-24T16:18:43;9.60;99.90
22966;DHT22;11649;48.090;9.754;2023-03-24T16:21:19;9.50;99.90
22966;DHT22;11649;48.090;9.754;2023-03-24T16:23:48;9.40;99.90
22966;DHT22;11649;48.090;9.754;2023-03-24T16:26:25;9.30;99.90
22966;DHT22;11649;48.090;9.754;2023-03-24T16:28:53;9.10;99.90
22966;DHT22;11649;48.090;9.754;2023-03-24T16:31:26;9.00;99.90
22966;DHT22;11649;48.090;9.754;2023-03-24T16:33:53;9.00;99.90
22966;DHT22;11649;48.090;9.754;2023-03-24T16:36:24;9.00;99.90
22966;DHT22;11649;48.090;9.754;2023-03-24T16:38:56;9.00;99.90
22966;DHT22;11649;48.090;9.754;2023-03-24T16:41:23;9.10;99.90
22966;DHT22;11649;48.090;9.754;2023-03-24T16:43:50;9.10;99.90
22966;DHT22;11649;48.090;9.754;2023-03-24T16:46:30;9.00;99.90
22966;DHT22;11649;48.090;9.754;2023-03-24T16:48:58;9.00;99.90
22966;DHT22;11649;48.090;9.754;2023-03-24T16:51:25;9.00;99.90
22966;DHT22;11649;48.090;9.754;2023-03-24T16:53:52;9.00;99.90
22966;DHT22;11649;48.090;9.754;2023-03-24T16:56:20;8.90;99.90
22966;DHT22;11649;48.090;9.754;2023-03-24T16:58:48;9.00;99.90
22966;DHT22;11649;48.090;9.754;2023-03-24T17:06:41;9.00;99.90
22966;DHT22;11649;48.090;9.754;2023-03-24T17:09:09;9.00;99.90
22966;DHT22;11649;48.090;9.754;2023-03-24T17:11:42;8.90;99.90
22966;DHT22;11649;48.090;9.754;2023-03-24T17:14:10;9.00;99.90
22966;DHT22;11649;48.090;9.754;2023-03-24T17:16:42;8.90;99.90
22966;DHT22;11649;48.090;9.754;2023-03-24T17:19:17;8.80;99.90
22966;DHT22;11649;48.090;9.754;2023-03-24T17:24:15;8.90;99.90
22966;DHT22;11649;48.090;9.754;2023-03-24T17:26:42;8.80;99.90
22966;DHT22;11649;48.090;9.754;2023-03-24T17:29:10;8.90;99.90
22966;DHT22;11649;48.090;9.754;2023-03-24T17:31:37;8.90;99.90
22966;DHT22;11649;48.090;9.754;2023-03-24T17:34:04;8.80;99.90
22966;DHT22;11649;48.090;9.754;2023-03-24T17:36:46;8.90;99.90
22966;DHT22;11649;48.090;9.754;2023-03-24T17:39:17;8.80;99.90
22966;DHT22;11649;48.090;9.754;2023-03-24T17:41:45;8.80;99.90
22966;DHT22;11649;48.090;9.754;2023-03-24T17:44:12;8.80;99.90
22966;DHT22;11649;48.090;9.754;2023-03-24T17:46:39;8.80;99.90
22966;DHT22;11649;48.090;9.754;2023-03-24T17:49:06;8.70;99.90
22966;DHT22;11649;48.090;9.754;2023-03-24T17:51:33;8.70;99.90
22966;DHT22;11649;48.090;9.754;2023-03-24T17:54:00;8.70;99.90
22966;DHT22;11649;48.090;9.754;2023-03-24T17:56:26;8.60;99.90
22966;DHT22;11649;48.090;9.754;2023-03-24T17:58:53;8.60;99.90
22966;DHT22;11649;48.090;9.754;2023-03-24T18:01:21;8.60;99.90
22966;DHT22;11649;48.090;9.754;2023-03-24T18:03:49;8.50;99.90
22966;DHT22;11649;48.090;9.754;2023-03-24T18:06:16;8.50;99.90
22966;DHT22;11649;48.090;9.754;2023-03-24T18:08:43;8.50;99.90
22966;DHT22;11649;48.090;9.754;2023-03-24T18:11:12;8.50;99.90
22966;DHT22;11649;48.090;9.754;2023-03-24T18:13:41;8.50;99.90
22966;DHT22;11649;48.090;9.754;2023-03-24T18:16:11;8.50;99.90
22966;DHT22;11649;48.090;9.754;2023-03-24T18:18:48;8.40;99.90
22966;DHT22;11649;48.090;9.754;2023-03-24T18:21:15;8.40;99.90
22966;DHT22;11649;48.090;9.754;2023-03-24T18:23:42;8.40;99.90
22966;DHT22;11649;48.090;9.754;2023-03-24T18:26:09;8.40;99.90
22966;DHT22;11649;48.090;9.754;2023-03-24T18:28:37;8.30;99.90
22966;DHT22;11649;48.090;9.754;2023-03-24T18:31:08;8.30;99.90
22966;DHT22;11649;48.090;9.754;2023-03-24T18:33:35;8.30;99.90